Time;durP1;ratioP1;P1;durP2;ratioP2;P2;SDS_P1;SDS_P2;PMS_P1;PMS_P2;Temp;Humidity;BMP_temperature;BMP_pressure;BME280_temperature;BME280_humidity;BME280_pressure;Samples;Min_cycle;Max_cycle;Signal;HPM_P1;HPM_P2
2022/10/06 00:00:47;;;;;;;;;1.00;1.00;;;;;21.38;48.02;102177.53;5076691;27;45469;-48
2022/10/06 00:03:13;;;;;;;;;1.00;1.00;;;;;21.37;48.39;102181.97;5076124;27;46669;-49
2022/10/06 00:05:38;;;;;;;;;1.00;1.00;;;;;21.36;48.15;102187.28;5076401;27;45366;-45
2022/10/06 00:08:04;;;;;;;;;1.00;1.00;;;;;21.38;47.95;102188.97;5076826;27;45507;-52
2022/10/06 00:10:30;;;;;;;;;1.75;1.00;;;;;21.37;48.08;102191.63;5076321;27;45346;-46
2022/10/06 00:12:55;;;;;;;;;2.75;1.00;;;;;21.37;48.11;102194.28;5076083;27;46241;-48
2022/10/06 00:15:24;;;;;;;;;0.00;0.00;;;;;21.37;48.18;102196.91;5076025;27;45279;-49
2022/10/06 00:17:50;;;;;;;;;1.00;1.00;;;;;21.37;48.20;102208.34;5076333;27;45321;-48
2022/10/06 00:20:17;;;;;;;;;0.00;0.00;;;;;21.36;48.01;102211.00;5076459;27;45961;-54
2022/10/06 00:22:45;;;;;;;;;2.00;1.00;;;;;21.36;48.20;102211.00;5076283;27;46182;-56
2022/10/06 00:25:12;;;;;;;;;1.00;1.00;;;;;21.36;48.17;102218.91;5076017;27;45873;-47
2022/10/06 00:27:39;;;;;;;;;2.75;1.75;;;;;21.36;47.93;102226.81;5076461;27;45271;-45
2022/10/06 00:30:08;;;;;;;;;1.75;1.00;;;;;21.35;47.89;102235.66;5076632;27;45153;-48
2022/10/06 00:32:33;;;;;;;;;0.25;0.25;;;;;21.36;47.93;102232.09;5076105;27;45732;-46
2022/10/06 00:34:59;;;;;;;;;0.00;0.00;;;;;21.36;48.12;102237.38;5075970;27;45436;-46
2022/10/06 00:37:26;;;;;;;;;1.00;1.00;;;;;21.36;48.17;102247.94;5074970;28;63713;-47
2022/10/06 00:39:51;;;;;;;;;1.00;1.00;;;;;21.36;47.96;102245.28;5074834;28;45356;-46
2022/10/06 00:42:29;;;;;;;;;2.00;2.00;;;;;21.36;47.97;102255.84;5075512;27;46225;-48
2022/10/06 00:44:58;;;;;;;;;1.00;1.00;;;;;21.36;47.71;102262.00;5075901;27;45671;-46
2022/10/06 00:47:25;;;;;;;;;2.00;0.00;;;;;21.35;47.65;102259.38;5075781;28;45410;-45
2022/10/06 00:49:53;;;;;;;;;1.00;1.00;;;;;21.35;47.80;102254.13;5076122;27;45445;-48
2022/10/06 00:52:21;;;;;;;;;2.00;1.00;;;;;21.35;47.85;102262.03;5075436;27;46463;-51
2022/10/06 00:54:47;;;;;;;;;1.00;1.00;;;;;21.34;47.99;102255.03;5075752;27;46414;-47
2022/10/06 00:57:12;;;;;;;;;0.25;0.25;;;;;21.34;48.07;102255.03;5075721;27;45824;-51
2022/10/06 00:59:39;;;;;;;;;1.00;1.00;;;;;21.33;48.01;102258.63;5074668;28;45572;-45
2022/10/06 01:02:32;;;;;;;;;1.00;1.00;;;;;21.34;47.95;102262.94;5075866;27;46157;-49
2022/10/06 01:05:00;;;;;;;;;2.75;0.25;;;;;21.33;47.79;102261.25;5075621;28;45801;-52
2022/10/06 01:07:27;;;;;;;;;1.75;0.00;;;;;21.31;47.62;102256.88;5075396;27;45430;-46
2022/10/06 01:09:55;;;;;;;;;0.00;0.00;;;;;21.32;47.64;102260.38;5075874;27;45235;-52
2022/10/06 01:12:21;;;;;;;;;1.00;0.75;;;;;21.31;47.54;102264.81;5077999;27;46874;-45
2022/10/06 01:14:47;;;;;;;;;1.00;1.00;;;;;21.33;47.93;102274.44;5078922;27;45331;-46
2022/10/06 01:17:40;;;;;;;;;0.50;0.50;;;;;21.33;47.67;102277.06;5078821;27;45428;-52
2022/10/06 01:20:09;;;;;;;;;1.00;1.00;;;;;21.31;47.80;102274.47;5079516;27;45188;-45
2022/10/06 01:22:42;;;;;;;;;0.00;0.00;;;;;21.33;47.93;102277.06;5079060;27;45331;-44
2022/10/06 01:25:09;;;;;;;;;0.00;0.00;;;;;21.30;47.44;102278.03;5078637;27;45832;-45
2022/10/06 01:27:38;;;;;;;;;2.50;1.00;;;;;21.32;47.59;102294.66;5079192;27;45432;-48
2022/10/06 01:30:06;;;;;;;;;1.25;1.00;;;;;21.31;47.55;102288.53;5079426;27;45624;-47
2022/10/06 01:32:35;;;;;;;;;0.75;0.00;;;;;21.30;47.54;102289.44;5078379;27;45414;-47
2022/10/06 01:35:01;;;;;;;;;0.00;0.00;;;;;21.31;47.61;102293.81;5078726;27;45881;-48
2022/10/06 01:37:26;;;;;;;;;2.00;1.00;;;;;21.29;47.41;102295.63;5078472;27;45396;-45
2022/10/06 01:39:52;;;;;;;;;3.00;1.00;;;;;21.31;47.73;102299.09;5078743;28;45558;-47
2022/10/06 01:42:17;;;;;;;;;1.00;1.00;;;;;21.30;47.70;102296.47;5078204;27;45404;-46
2022/10/06 01:44:42;;;;;;;;;1.50;0.75;;;;;21.30;47.81;102301.75;5076954;28;52618;-44
2022/10/06 01:47:08;;;;;;;;;1.00;1.00;;;;;21.31;47.24;102303.47;5076993;28;45208;-44
2022/10/06 01:49:33;;;;;;;;;1.00;1.00;;;;;21.28;47.48;102295.66;5079066;27;45635;-46
2022/10/06 01:51:59;;;;;;;;;2.25;1.25;;;;;21.30;47.15;102300.00;5078181;27;46405;-52
2022/10/06 01:54:24;;;;;;;;;1.50;1.00;;;;;21.30;47.18;102301.75;5077977;27;45223;-49
2022/10/06 01:56:49;;;;;;;;;0.25;0.25;;;;;21.29;47.42;102300.91;5078539;27;45219;-49
2022/10/06 01:59:15;;;;;;;;;4.75;1.00;;;;;21.29;47.54;102300.91;5077937;28;49207;-53
2022/10/06 02:01:40;;;;;;;;;1.00;1.00;;;;;21.28;47.55;102293.03;5078102;27;46354;-49
2022/10/06 02:04:06;;;;;;;;;2.00;0.50;;;;;21.29;47.65;102306.19;5078472;27;45350;-52
2022/10/06 02:06:31;;;;;;;;;2.25;1.00;;;;;21.30;47.67;102304.38;5078091;27;45224;-48
2022/10/06 02:08:57;;;;;;;;;1.25;0.00;;;;;21.28;47.48;102304.47;5078345;27;45572;-50
2022/10/06 02:11:22;;;;;;;;;0.00;0.00;;;;;21.29;47.31;102310.56;5077875;27;46015;-45
2022/10/06 02:13:47;;;;;;;;;0.00;0.00;;;;;21.27;47.26;102313.28;5077894;27;48696;-46
2022/10/06 02:16:13;;;;;;;;;0.00;0.00;;;;;21.26;47.37;102306.28;5077526;27;48582;-48
2022/10/06 02:18:39;;;;;;;;;0.50;0.00;;;;;21.29;47.56;102313.22;5078330;27;45667;-46
2022/10/06 02:21:05;;;;;;;;;1.00;0.50;;;;;21.28;47.52;102314.13;5078060;27;45481;-45
2022/10/06 02:23:31;;;;;;;;;2.00;1.00;;;;;21.28;47.16;102314.13;5077443;27;45759;-45
2022/10/06 02:26:02;;;;;;;;;2.50;0.50;;;;;21.29;47.28;102319.38;5078090;27;45247;-45
2022/10/06 02:28:28;;;;;;;;;1.00;1.00;;;;;21.27;47.42;102326.47;5078050;27;46256;-45
2022/10/06 02:30:54;;;;;;;;;2.25;0.50;;;;;21.27;47.37;102323.81;5077713;27;47322;-48
2022/10/06 02:33:20;;;;;;;;;0.00;0.00;;;;;21.27;47.50;102326.47;5077416;27;45727;-50
2022/10/06 02:35:46;;;;;;;;;0.00;0.00;;;;;21.27;47.12;102328.25;5078004;27;45354;-46
2022/10/06 02:38:11;;;;;;;;;3.00;1.00;;;;;21.26;47.17;102329.16;5077766;27;45371;-45
2022/10/06 02:40:36;;;;;;;;;0.50;0.25;;;;;21.26;47.26;102335.28;5077838;27;46228;-47
2022/10/06 02:43:02;;;;;;;;;0.00;0.00;;;;;21.26;46.90;102337.94;5076344;27;45328;-45
2022/10/06 02:45:27;;;;;;;;;2.50;1.00;;;;;21.27;47.05;102333.53;5077686;27;45361;-50
2022/10/06 02:47:53;;;;;;;;;1.25;0.00;;;;;21.27;47.24;102347.56;5077771;27;45172;-46
2022/10/06 02:50:19;;;;;;;;;1.00;1.00;;;;;21.26;47.11;102343.19;5076997;27;46149;-47
2022/10/06 02:52:45;;;;;;;;;1.00;1.00;;;;;21.25;47.26;102344.09;5077234;27;45358;-50
2022/10/06 02:55:11;;;;;;;;;2.00;2.00;;;;;21.24;46.91;102342.38;5077177;27;45237;-47
2022/10/06 02:57:36;;;;;;;;;3.25;1.00;;;;;21.25;46.84;102346.75;5077755;27;45181;-49
2022/10/06 03:00:06;;;;;;;;;3.00;1.00;;;;;21.25;46.70;102340.63;5076952;27;46248;-49
2022/10/06 03:02:31;;;;;;;;;1.50;0.25;;;;;21.25;46.94;102349.38;5076961;27;45832;-52
2022/10/06 03:04:57;;;;;;;;;1.50;0.50;;;;;21.25;46.73;102351.19;5077443;27;45333;-50
2022/10/06 03:07:22;;;;;;;;;2.50;1.00;;;;;21.25;46.89;102353.81;5077364;27;45370;-57
2022/10/06 03:09:47;;;;;;;;;0.67;0.67;;;;;21.25;47.01;102357.28;5076621;28;62195;-49
2022/10/06 03:12:13;;;;;;;;;3.00;0.25;;;;;21.24;47.07;102352.09;5076615;27;45374;-52
2022/10/06 03:14:38;;;;;;;;;1.50;0.50;;;;;21.24;46.81;102363.47;5077127;27;45333;-53
2022/10/06 03:17:03;;;;;;;;;0.00;0.00;;;;;21.25;46.80;102365.19;5077743;27;45311;-53
2022/10/06 03:19:29;;;;;;;;;0.75;0.00;;;;;21.24;46.97;102357.34;5076704;27;46142;-55
2022/10/06 03:21:54;;;;;;;;;2.25;0.25;;;;;21.24;46.75;102370.53;5076930;27;45175;-56
2022/10/06 03:24:22;;;;;;;;;0.25;0.00;;;;;21.23;46.87;102374.94;5075152;28;50891;-53
2022/10/06 03:26:47;;;;;;;;;1.00;0.00;;;;;21.22;46.92;102361.81;5076470;28;57275;-55
2022/10/06 03:29:14;;;;;;;;;0.50;0.50;;;;;21.23;46.73;102377.56;5076437;27;45473;-56
2022/10/06 03:31:41;;;;;;;;;0.75;0.50;;;;;21.24;47.02;102375.81;5076778;27;45334;-53
2022/10/06 03:34:06;;;;;;;;;0.50;0.50;;;;;21.23;46.87;102374.09;5076325;27;45357;-55
2022/10/06 03:36:33;;;;;;;;;2.50;0.75;;;;;21.23;46.65;102380.22;5076938;27;45385;-52
2022/10/06 03:38:59;;;;;;;;;1.00;0.00;;;;;21.22;46.72;102389.03;5076734;27;46279;-54
2022/10/06 03:41:31;;;;;;;;;2.00;1.00;;;;;21.22;46.60;102393.47;5076605;27;45729;-50
2022/10/06 03:43:58;;;;;;;;;2.75;0.25;;;;;21.22;46.89;102391.66;5076764;27;45483;-51
2022/10/06 03:46:25;;;;;;;;;3.00;0.75;;;;;21.22;46.33;102393.47;5076849;27;45172;-54
2022/10/06 03:48:51;;;;;;;;;0.00;0.00;;;;;21.21;46.25;102399.63;5076600;27;45429;-55
2022/10/06 03:51:30;;;;;;;;;2.25;1.00;;;;;21.21;46.73;102408.44;5076363;28;45333;-54
2022/10/06 03:53:56;;;;;;;;;1.50;0.50;;;;;21.21;46.45;102411.06;5076530;28;45385;-48
2022/10/06 03:56:41;;;;;;;;;0.75;0.75;;;;;21.21;46.40;102413.72;5076649;27;45359;-51
2022/10/06 03:59:09;;;;;;;;;3.00;2.00;;;;;21.18;46.68;102413.81;5076790;28;46705;-49
2022/10/06 04:01:38;;;;;;;;;1.75;0.75;;;;;21.21;46.27;102421.63;5076780;27;45724;-50
2022/10/06 04:04:04;;;;;;;;;1.00;0.50;;;;;21.21;46.53;102424.25;5076879;27;45454;-48
2022/10/06 04:06:33;;;;;;;;;0.00;0.00;;;;;21.21;46.69;102426.00;5076454;27;45532;-46
2022/10/06 04:08:59;;;;;;;;;1.25;0.00;;;;;21.20;46.67;102422.53;5076271;27;46669;-53
2022/10/06 04:11:27;;;;;;;;;1.75;1.00;;;;;21.21;46.48;102429.53;5075810;28;45795;-47
2022/10/06 04:13:57;;;;;;;;;0.50;0.50;;;;;21.21;46.82;102431.28;5076354;27;45428;-45
2022/10/06 04:16:30;;;;;;;;;2.75;0.75;;;;;21.19;46.27;102431.34;5076277;27;45325;-47
2022/10/06 04:18:58;;;;;;;;;3.00;1.00;;;;;21.19;46.62;102433.97;5076060;27;46065;-49
2022/10/06 04:21:25;;;;;;;;;0.00;0.00;;;;;21.19;46.60;102441.88;5075926;28;45235;-45
2022/10/06 04:23:52;;;;;;;;;1.25;0.75;;;;;21.19;46.61;102439.25;5076276;28;45322;-50
2022/10/06 04:26:20;;;;;;;;;0.00;0.00;;;;;21.17;46.48;102443.72;5076171;27;45294;-47
2022/10/06 04:28:46;;;;;;;;;1.00;1.00;;;;;21.19;46.19;102441.88;5075902;27;46542;-51
2022/10/06 04:31:25;;;;;;;;;2.00;0.50;;;;;21.19;46.21;102447.16;5075801;27;45778;-57
2022/10/06 04:33:52;;;;;;;;;2.25;0.75;;;;;21.18;46.40;102448.06;5076107;27;45279;-52
2022/10/06 04:36:21;;;;;;;;;0.75;0.75;;;;;21.19;46.21;102456.84;5075962;27;45310;-57
2022/10/06 04:38:47;;;;;;;;;0.00;0.00;;;;;21.19;46.23;102459.47;5075757;27;46492;-53
2022/10/06 04:41:16;;;;;;;;;1.75;0.25;;;;;21.17;46.37;102459.53;5075766;27;45881;-55
2022/10/06 04:43:45;;;;;;;;;2.00;1.00;;;;;21.19;46.43;102463.00;5076276;27;45773;-52
2022/10/06 04:46:10;;;;;;;;;1.00;1.00;;;;;21.18;46.42;102453.34;5078627;27;45484;-58
2022/10/06 04:48:36;;;;;;;;;3.75;0.75;;;;;21.17;46.41;102467.44;5079531;27;46618;-54
2022/10/06 04:51:05;;;;;;;;;0.50;0.25;;;;;21.18;46.14;102469.16;5079403;27;45347;-56
2022/10/06 04:53:31;;;;;;;;;0.25;0.25;;;;;21.18;46.47;102466.53;5079291;27;45304;-58
2022/10/06 04:56:07;;;;;;;;;2.00;1.00;;;;;21.18;46.10;102466.53;5078097;27;45718;-57
2022/10/06 04:58:37;;;;;;;;;1.00;1.00;;;;;21.17;45.89;102464.81;5079386;27;47811;-57
2022/10/06 05:01:10;;;;;;;;;0.75;0.75;;;;;21.17;46.35;102470.06;5079191;27;45369;-57
2022/10/06 05:03:37;;;;;;;;;0.00;0.00;;;;;21.17;45.98;102472.72;5079574;28;45305;-53
2022/10/06 05:06:09;;;;;;;;;0.00;0.00;;;;;21.16;46.28;102473.63;5079662;28;45596;-58
2022/10/06 05:08:35;;;;;;;;;2.25;1.00;;;;;21.16;45.98;102477.13;5079389;28;45425;-58
2022/10/06 05:11:02;;;;;;;;;2.75;1.00;;;;;21.16;45.87;102471.88;5078702;28;45373;-56
2022/10/06 05:13:28;;;;;;;;;2.50;1.00;;;;;21.15;45.65;102478.06;5078997;27;45208;-58
2022/10/06 05:15:58;;;;;;;;;1.00;1.00;;;;;21.16;45.89;102473.63;5077662;28;45302;-55
2022/10/06 05:18:25;;;;;;;;;2.50;2.00;;;;;21.15;45.95;102478.06;5078749;27;45368;-49
2022/10/06 05:20:58;;;;;;;;;2.00;1.00;;;;;21.15;45.77;102479.81;5078503;28;45967;-51
2022/10/06 05:23:25;;;;;;;;;1.00;1.00;;;;;21.14;46.27;102481.59;5079138;27;45418;-56
2022/10/06 05:25:55;;;;;;;;;1.00;1.00;;;;;21.14;46.30;102480.72;5078776;27;45456;-47
2022/10/06 05:28:22;;;;;;;;;2.00;1.00;;;;;21.13;46.00;102490.41;5078803;27;45556;-47
2022/10/06 05:31:00;;;;;;;;;3.00;2.00;;;;;21.14;46.12;102481.59;5078649;28;45511;-51
2022/10/06 05:33:28;;;;;;;;;2.00;1.00;;;;;21.13;46.13;102489.53;5078753;27;45342;-58
2022/10/06 05:35:59;;;;;;;;;2.50;1.50;;;;;21.12;46.26;102491.31;5078734;27;45271;-47
2022/10/06 05:38:26;;;;;;;;;1.50;1.50;;;;;21.14;46.14;102496.53;5078423;27;47381;-48
2022/10/06 05:41:19;;;;;;;;;2.00;1.25;;;;;21.13;45.83;102500.97;5078340;28;45445;-54
2022/10/06 05:43:45;;;;;;;;;1.75;1.75;;;;;21.13;46.10;102505.34;5078315;27;45458;-53
2022/10/06 05:46:18;;;;;;;;;2.50;1.00;;;;;21.12;46.04;102503.63;5078753;27;45348;-51
2022/10/06 05:48:48;;;;;;;;;1.00;1.00;;;;;21.12;45.97;102506.25;5078087;28;46255;-49
2022/10/06 05:51:15;;;;;;;;;2.50;2.50;;;;;21.13;46.03;102508.00;5078592;27;45287;-51
2022/10/06 05:53:40;;;;;;;;;2.25;1.75;;;;;21.12;46.01;102507.13;5078163;27;45228;-48
2022/10/06 05:56:06;;;;;;;;;2.50;1.00;;;;;21.13;46.16;102511.50;5078510;28;45663;-45
2022/10/06 05:58:33;;;;;;;;;1.50;1.00;;;;;21.11;46.11;102508.03;5077931;28;45193;-46
2022/10/06 06:01:10;;;;;;;;;2.00;2.00;;;;;21.13;46.18;102515.91;5078018;28;45322;-47
2022/10/06 06:03:37;;;;;;;;;3.25;2.00;;;;;21.13;46.07;102518.53;5078742;27;45512;-48
2022/10/06 06:06:10;;;;;;;;;1.75;1.00;;;;;21.12;46.05;102515.03;5078555;28;45377;-53
2022/10/06 06:08:36;;;;;;;;;1.25;1.00;;;;;21.12;45.96;102516.81;5078464;28;46488;-45
2022/10/06 06:11:06;;;;;;;;;2.50;1.25;;;;;21.11;45.75;102520.38;5078048;27;45405;-53
2022/10/06 06:13:32;;;;;;;;;2.00;2.00;;;;;21.11;45.99;102523.88;5078232;28;45898;-47
2022/10/06 06:16:03;;;;;;;;;1.50;1.00;;;;;21.11;45.94;102520.38;5078033;27;45304;-48
2022/10/06 06:18:29;;;;;;;;;3.00;1.00;;;;;21.12;45.57;102522.06;5077823;28;46525;-47
2022/10/06 06:20:57;;;;;;;;;1.25;1.00;;;;;21.11;45.74;102526.50;5077529;28;45702;-46
2022/10/06 06:23:22;;;;;;;;;4.25;2.00;;;;;21.11;46.07;102534.41;5078036;27;45248;-47
2022/10/06 06:26:01;;;;;;;;;2.25;1.25;;;;;21.10;45.67;102532.69;5078004;28;45518;-43
2022/10/06 06:28:28;;;;;;;;;1.25;1.00;;;;;21.11;45.86;102538.84;5077655;28;46723;-42
2022/10/06 06:31:05;;;;;;;;;3.00;1.50;;;;;21.12;46.25;102543.16;5077419;28;45292;-45
2022/10/06 06:33:31;;;;;;;;;3.75;1.25;;;;;21.11;45.91;102544.09;5077684;28;45313;-48
2022/10/06 06:36:00;;;;;;;;;4.00;1.50;;;;;21.13;45.99;102553.69;5077898;28;45712;-45
2022/10/06 06:38:25;;;;;;;;;1.00;1.00;;;;;21.13;45.94;102547.53;5077688;27;47361;-47
2022/10/06 06:40:50;;;;;;;;;2.00;2.00;;;;;21.11;46.11;102544.97;5077482;28;45319;-45
2022/10/06 06:43:16;;;;;;;;;2.00;2.00;;;;;21.11;45.78;102549.38;5077618;27;45377;-50
2022/10/06 06:45:41;;;;;;;;;2.00;2.00;;;;;21.12;46.01;102551.06;5077656;27;45507;-46
2022/10/06 06:48:12;;;;;;;;;3.00;1.67;;;;;21.11;45.94;102549.38;5077120;27;65735;-55
2022/10/06 06:50:38;;;;;;;;;3.00;1.00;;;;;21.11;46.04;102560.78;5077621;28;45448;-49
2022/10/06 06:53:03;;;;;;;;;1.00;1.00;;;;;21.13;46.00;102561.59;5075513;28;61463;-44
2022/10/06 06:55:28;;;;;;;;;2.50;1.00;;;;;21.14;45.88;102571.25;5077383;28;45492;-45
2022/10/06 06:57:54;;;;;;;;;3.75;2.00;;;;;21.15;45.70;102578.25;5076659;28;55558;-50
2022/10/06 07:00:22;;;;;;;;;4.00;1.00;;;;;21.16;46.02;102577.34;5075904;28;45419;-48
2022/10/06 07:02:59;;;;;;;;;1.25;1.25;;;;;21.17;46.16;102579.03;5077150;28;45432;-48
2022/10/06 07:05:25;;;;;;;;;1.00;1.00;;;;;21.19;45.76;102586.91;5077622;27;45481;-44
2022/10/06 07:07:50;;;;;;;;;1.00;1.00;;;;;21.19;45.81;102589.56;5077026;27;46435;-43
2022/10/06 07:10:15;;;;;;;;;4.50;1.25;;;;;21.19;46.18;102588.66;5077210;28;45260;-46
2022/10/06 07:12:44;;;;;;;;;2.50;1.00;;;;;21.21;45.95;102594.78;5077001;28;45347;-43
2022/10/06 07:26:06;;;;;;;;;1.50;1.25;;;;;21.22;46.48;102605.25;5077278;28;45286;-57
2022/10/06 07:28:31;;;;;;;;;1.00;1.00;;;;;21.23;46.15;102607.00;5076663;28;46393;-53
2022/10/06 07:30:59;;;;;;;;;2.00;2.00;;;;;21.24;46.23;102613.16;5075242;27;45455;-55
2022/10/06 07:33:27;;;;;;;;;2.50;2.00;;;;;21.24;45.97;102618.41;5076663;28;45345;-46
2022/10/06 07:35:53;;;;;;;;;4.00;1.50;;;;;21.24;46.11;102619.28;5076525;28;45445;-54
2022/10/06 07:38:24;;;;;;;;;1.25;1.25;;;;;21.22;46.29;102615.81;5076543;27;45459;-55
2022/10/06 07:40:54;;;;;;;;;1.00;1.00;;;;;21.26;46.31;102624.50;5076286;28;45263;-49
2022/10/06 07:43:19;;;;;;;;;2.00;1.75;;;;;21.24;46.17;102624.53;5076810;28;45291;-47
2022/10/06 07:45:45;;;;;;;;;1.75;1.00;;;;;21.25;46.40;102626.28;5076608;28;45311;-48
2022/10/06 07:48:19;;;;;;;;;1.75;1.75;;;;;21.25;46.33;102631.53;5076806;27;45952;-44
2022/10/06 07:50:48;;;;;;;;;2.75;1.25;;;;;21.24;46.46;102627.19;5076247;27;45234;-42
2022/10/06 07:53:15;;;;;;;;;2.00;1.75;;;;;21.26;46.08;102635.91;5076778;28;45374;-47
2022/10/06 07:55:44;;;;;;;;;1.25;1.00;;;;;21.24;46.36;102632.44;5076809;28;45512;-52
2022/10/06 07:58:17;;;;;;;;;1.00;1.00;;;;;21.27;46.26;102635.00;5076654;27;46552;-52
2022/10/06 08:00:44;;;;;;;;;2.00;2.00;;;;;21.28;46.36;102647.28;5076142;28;45425;-49
2022/10/06 08:03:11;;;;;;;;;3.00;1.00;;;;;21.28;46.08;102646.41;5076805;28;45370;-54
2022/10/06 08:05:38;;;;;;;;;1.75;1.75;;;;;21.27;45.96;102640.28;5075400;28;45570;-51
2022/10/06 08:08:03;;;;;;;;;2.50;1.25;;;;;21.27;46.32;102648.19;5076157;27;45503;-50
2022/10/06 08:10:29;;;;;;;;;6.00;1.00;;;;;21.28;46.24;102652.56;5076264;28;45373;-54
2022/10/06 08:12:54;;;;;;;;;1.50;1.00;;;;;21.30;46.27;102657.78;5076017;28;45395;-54
2022/10/06 08:15:20;;;;;;;;;1.25;0.75;;;;;21.30;46.14;102649.88;5076471;27;45536;-53
2022/10/06 08:17:45;;;;;;;;;2.25;1.00;;;;;21.30;46.13;102650.75;5074266;27;47431;-51
2022/10/06 08:20:12;;;;;;;;;1.00;1.00;;;;;21.30;45.93;102661.28;5075908;28;45336;-53
2022/10/06 08:22:39;;;;;;;;;1.25;1.25;;;;;21.31;46.50;102660.38;5075856;27;45360;-53
2022/10/06 08:25:08;;;;;;;;;2.00;2.00;;;;;21.31;46.10;102667.41;5076376;28;45356;-52
2022/10/06 08:27:35;;;;;;;;;2.00;1.00;;;;;21.30;46.29;102663.06;5073545;28;46159;-53
2022/10/06 08:30:01;;;;;;;;;5.00;1.00;;;;;21.31;45.88;102665.66;5074848;27;45806;-48
2022/10/06 08:32:26;;;;;;;;;4.00;1.75;;;;;21.32;46.04;102669.16;5075665;27;45356;-53
2022/10/06 09:01:53;;;;;;;;;1.00;1.00;;;;;21.36;45.88;102691.03;5055211;28;45315;-50
2022/10/06 09:04:27;;;;;;;;;1.00;1.00;;;;;21.35;46.18;102695.44;5055352;28;45401;-53
2022/10/06 09:07:14;;;;;;;;;1.25;1.00;;;;;21.36;46.10;102696.28;5054921;28;45924;-58
2022/10/06 09:10:07;;;;;;;;;3.50;1.00;;;;;21.36;45.63;102698.94;5055227;28;45318;-57
2022/10/06 09:12:43;;;;;;;;;3.00;1.00;;;;;21.36;45.93;102702.44;5055484;28;45457;-55
2022/10/06 09:15:32;;;;;;;;;1.75;0.50;;;;;21.36;46.03;102698.94;5055125;28;45541;-59
2022/10/06 09:18:26;;;;;;;;;5.25;2.75;;;;;21.36;45.34;102696.28;5055241;28;45390;-58
2022/10/06 09:21:00;;;;;;;;;3.00;1.00;;;;;21.28;44.48;102699.16;5054857;28;45227;-59
2022/10/06 09:23:48;;;;;;;;;3.25;1.50;;;;;21.20;44.23;102696.75;5055751;28;45225;-58
2022/10/06 09:26:21;;;;;;;;;4.50;2.25;;;;;21.14;44.29;102699.56;5055189;28;46681;-59
2022/10/06 09:28:47;;;;;;;;;2.00;2.00;;;;;21.09;44.00;102698.84;5036763;28;46641;-59
2022/10/06 09:31:30;;;;;;;;;2.50;1.50;;;;;21.05;43.88;102699.81;5055234;28;45410;-59
2022/10/06 09:33:58;;;;;;;;;3.75;2.00;;;;;21.01;43.91;102699.91;5058718;28;45516;-58
2022/10/06 09:36:24;;;;;;;;;3.25;2.50;;;;;21.00;44.01;102705.22;5058323;28;46512;-58
2022/10/06 09:38:52;;;;;;;;;3.00;2.00;;;;;20.97;43.59;102700.91;5058014;28;45346;-58
2022/10/06 09:41:32;;;;;;;;;5.75;3.00;;;;;20.95;43.72;102699.19;5058466;28;45456;-59
2022/10/06 09:44:18;;;;;;;;;3.00;1.00;;;;;20.89;43.63;102702.88;5058750;28;45478;-59
2022/10/06 09:46:44;;;;;;;;;1.00;1.00;;;;;20.85;43.48;102698.59;5058039;28;45527;-59
2022/10/06 09:49:20;;;;;;;;;5.25;3.00;;;;;20.84;43.47;102700.34;5057991;28;48836;-59
2022/10/06 09:51:58;;;;;;;;;2.25;2.25;;;;;20.82;43.80;102698.69;5040048;28;45579;-58
2022/10/06 09:54:24;;;;;;;;;2.50;1.00;;;;;20.80;43.96;102692.56;5058476;28;45578;-57
2022/10/06 09:56:50;;;;;;;;;2.00;1.50;;;;;20.78;43.69;102699.69;5057772;28;46283;-57
2022/10/06 09:59:22;;;;;;;;;3.75;2.75;;;;;20.77;43.52;102700.59;5057903;28;45395;-57
2022/10/06 10:01:54;;;;;;;;;9.00;3.75;;;;;20.76;43.29;102698.84;5057969;28;45454;-57
2022/10/06 10:04:29;;;;;;;;;3.50;2.25;;;;;20.74;43.71;102696.25;5058227;28;45499;-58
2022/10/06 10:07:13;;;;;;;;;2.00;1.75;;;;;20.72;43.23;102689.25;5039262;28;46813;-58
2022/10/06 10:09:40;;;;;;;;;6.00;2.25;;;;;20.70;43.39;102698.06;5057513;28;45853;-58
2022/10/06 10:15:00;;;;;;;;;6.00;2.00;;;;;20.72;43.59;102694.53;5057682;28;45430;-58
2022/10/06 10:17:32;;;;;;;;;5.25;3.00;;;;;20.73;43.76;102696.25;5039739;28;47235;-58
2022/10/06 10:19:59;;;;;;;;;3.25;3.25;;;;;20.69;43.42;102696.34;5056538;28;45706;-59
2022/10/06 10:22:39;;;;;;;;;6.50;3.75;;;;;20.70;43.53;102689.31;5057880;28;45356;-56
2022/10/06 10:25:23;;;;;;;;;2.50;2.00;;;;;20.71;43.43;102693.69;5057995;28;45283;-58
2022/10/06 10:28:02;;;;;;;;;6.50;4.00;;;;;20.73;43.42;102683.09;5057326;28;46385;-57
2022/10/06 10:30:44;;;;;;;;;2.25;2.25;;;;;20.73;43.25;102691.00;5057894;28;45753;-57
2022/10/06 10:33:18;;;;;;;;;3.00;2.00;;;;;20.73;43.21;102681.31;5057586;28;45360;-58
2022/10/06 10:35:49;;;;;;;;;8.00;1.25;;;;;20.73;43.14;102685.72;5057313;28;45395;-55
2022/10/06 10:38:23;;;;;;;;;4.50;1.75;;;;;20.74;43.06;102680.44;5057291;28;45444;-57
2022/10/06 10:40:55;;;;;;;;;6.25;2.50;;;;;20.73;42.98;102676.03;5057110;28;45245;-57
2022/10/06 10:43:34;;;;;;;;;4.00;2.00;;;;;20.74;43.17;102677.78;5057074;28;45240;-57
2022/10/06 10:46:15;;;;;;;;;5.50;3.00;;;;;20.74;43.17;102679.56;5039578;28;45635;-57
2022/10/06 10:48:54;;;;;;;;;3.25;1.00;;;;;20.74;42.77;102682.19;5056623;28;46219;-56
2022/10/06 10:51:52;;;;;;;;;4.25;2.75;;;;;20.75;42.71;102673.41;5057198;28;45948;-56
2022/10/06 10:54:29;;;;;;;;;3.00;1.00;;;;;20.73;42.66;102676.03;5045194;28;45926;-58
2022/10/06 10:56:54;;;;;;;;;2.00;2.00;;;;;20.74;42.48;102679.56;5056928;28;45489;-58
2022/10/06 10:59:41;;;;;;;;;4.50;2.75;;;;;20.77;42.59;102677.72;5056855;28;45346;-59
2022/10/06 11:02:13;;;;;;;;;5.00;3.00;;;;;20.80;42.36;102676.75;5057128;28;45320;-57
2022/10/06 11:04:45;;;;;;;;;3.75;2.75;;;;;20.80;42.64;102679.41;5056743;28;45454;-56
2022/10/06 11:07:37;;;;;;;;;2.00;1.75;;;;;20.82;42.48;102674.97;5057086;28;45573;-56
2022/10/06 11:10:05;;;;;;;;;3.00;3.00;;;;;20.82;41.92;102670.56;5039061;28;47213;-56
2022/10/06 11:13:09;;;;;;;;;5.50;2.50;;;;;20.84;42.35;102673.16;5057111;28;45875;-53
2022/10/06 11:15:59;;;;;;;;;6.75;3.00;;;;;20.87;41.51;102672.19;5057019;28;45417;-58
2022/10/06 11:18:46;;;;;;;;;2.00;2.00;;;;;20.86;41.60;102666.06;5057067;28;45497;-56
2022/10/06 11:21:33;;;;;;;;;2.25;2.00;;;;;20.85;41.64;102673.09;5056722;28;45355;-60
2022/10/06 11:24:28;;;;;;;;;0.25;0.00;;;;;20.88;41.43;102674.81;5056664;28;45363;-63
2022/10/06 11:26:54;;;;;;;;;2.75;2.50;;;;;20.90;41.58;102672.13;5051129;28;45419;-60
2022/10/06 11:29:37;;;;;;;;;4.33;2.00;;;;;20.92;41.42;102681.69;5056978;28;45745;-55
2022/10/06 11:32:30;;;;;;;;;4.00;1.50;;;;;20.91;40.63;102672.06;5056818;28;46651;-61
2022/10/06 11:34:56;;;;;;;;;3.25;2.00;;;;;20.88;39.78;102663.38;5028013;28;45338;-59
2022/10/06 11:37:30;;;;;;;;;4.00;1.00;;;;;20.85;40.13;102659.06;5056705;28;45350;-56
2022/10/06 11:40:31;;;;;;;;;3.50;1.00;;;;;20.85;40.04;102669.63;5038402;28;45606;-55
2022/10/06 11:43:39;;;;;;;;;2.00;2.00;;;;;20.82;39.77;102659.16;5056149;28;46714;-58
2022/10/06 11:46:19;;;;;;;;;2.00;1.00;;;;;20.80;39.62;102659.19;4994450;28;45259;-55
2022/10/06 11:48:45;;;;;;;;;2.75;2.00;;;;;20.77;39.75;102650.53;5052623;28;45593;-58
2022/10/06 11:51:22;;;;;;;;;7.00;3.00;;;;;20.77;40.25;102659.28;5056519;28;45287;-58
2022/10/06 11:53:48;;;;;;;;;2.25;2.00;;;;;20.77;39.80;102653.16;5055631;28;46270;-60
2022/10/06 11:56:16;;;;;;;;;2.75;2.00;;;;;20.73;40.02;102647.03;5037826;28;45435;-59
2022/10/06 11:58:51;;;;;;;;;4.00;2.00;;;;;20.73;40.21;102648.84;5055892;28;45517;-56
2022/10/06 12:01:42;;;;;;;;;1.00;1.00;;;;;20.73;39.98;102644.41;5056417;28;45594;-54
2022/10/06 12:04:08;;;;;;;;;2.75;2.00;;;;;20.72;39.95;102647.09;5054639;28;45770;-54
2022/10/06 12:06:45;;;;;;;;;1.25;1.25;;;;;20.72;39.63;102644.47;5056382;28;45318;-54
2022/10/06 12:09:32;;;;;;;;;2.50;1.75;;;;;20.68;39.76;102641.06;5056191;28;45177;-50
2022/10/06 12:12:23;;;;;;;;;1.25;1.00;;;;;20.64;39.88;102629.75;5056130;28;45542;-53
2022/10/06 12:15:20;;;;;;;;;3.50;2.00;;;;;20.65;39.58;102626.22;5055637;28;45408;-58
2022/10/06 12:18:18;;;;;;;;;3.75;3.00;;;;;20.63;40.13;102628.00;5001070;28;45374;-57
2022/10/06 12:20:54;;;;;;;;;3.75;2.00;;;;;20.64;39.90;102629.75;5055770;28;45279;-58